sensor_id;sensor_type;location;lat;lon;timestamp;temperature;humidity
14604;DHT22;7388;51.078;13.740;2024-03-02T00:00:22;13.80;50.00
14604;DHT22;7388;51.078;13.740;2024-03-02T00:02:49;13.80;50.00
14604;DHT22;7388;51.078;13.740;2024-03-02T00:05:17;13.80;49.90
14604;DHT22;7388;51.078;13.740;2024-03-02T00:07:44;13.80;49.80
14604;DHT22;7388;51.078;13.740;2024-03-02T00:10:11;13.80;49.80
14604;DHT22;7388;51.078;13.740;2024-03-02T00:12:40;13.80;49.80
14604;DHT22;7388;51.078;13.740;2024-03-02T00:18:14;13.80;49.80
14604;DHT22;7388;51.078;13.740;2024-03-02T00:20:40;13.70;50.00
14604;DHT22;7388;51.078;13.740;2024-03-02T00:23:08;13.70;50.20
14604;DHT22;7388;51.078;13.740;2024-03-02T00:25:45;13.70;50.20
14604;DHT22;7388;51.078;13.740;2024-03-02T00:28:19;13.70;50.10
14604;DHT22;7388;51.078;13.740;2024-03-02T00:33:27;13.70;50.10
14604;DHT22;7388;51.078;13.740;2024-03-02T00:35:54;13.70;50.30
14604;DHT22;7388;51.078;13.740;2024-03-02T00:38:20;13.70;50.40
14604;DHT22;7388;51.078;13.740;2024-03-02T00:40:46;13.70;50.50
14604;DHT22;7388;51.078;13.740;2024-03-02T00:46:15;13.70;50.40
14604;DHT22;7388;51.078;13.740;2024-03-02T00:49:22;13.70;50.50
14604;DHT22;7388;51.078;13.740;2024-03-02T00:51:50;13.70;50.50
14604;DHT22;7388;51.078;13.740;2024-03-02T00:54:25;13.70;50.70
14604;DHT22;7388;51.078;13.740;2024-03-02T00:56:52;13.70;50.60
14604;DHT22;7388;51.078;13.740;2024-03-02T00:59:20;13.70;50.60
14604;DHT22;7388;51.078;13.740;2024-03-02T01:01:47;13.70;50.40
14604;DHT22;7388;51.078;13.740;2024-03-02T01:04:13;13.80;50.40
14604;DHT22;7388;51.078;13.740;2024-03-02T01:06:39;13.80;50.40
14604;DHT22;7388;51.078;13.740;2024-03-02T01:09:05;13.80;50.30
14604;DHT22;7388;51.078;13.740;2024-03-02T01:11:31;13.80;50.40
14604;DHT22;7388;51.078;13.740;2024-03-02T01:13:56;13.80;50.40
14604;DHT22;7388;51.078;13.740;2024-03-02T01:16:22;13.80;50.50
14604;DHT22;7388;51.078;13.740;2024-03-02T01:18:48;13.80;50.60
14604;DHT22;7388;51.078;13.740;2024-03-02T01:21:15;13.80;50.70
14604;DHT22;7388;51.078;13.740;2024-03-02T01:23:42;13.80;50.70
14604;DHT22;7388;51.078;13.740;2024-03-02T01:26:07;13.80;50.60
14604;DHT22;7388;51.078;13.740;2024-03-02T01:28:33;13.80;50.70
14604;DHT22;7388;51.078;13.740;2024-03-02T01:30:59;13.70;50.70
14604;DHT22;7388;51.078;13.740;2024-03-02T01:33:25;13.70;50.80
14604;DHT22;7388;51.078;13.740;2024-03-02T01:35:50;13.70;50.90
14604;DHT22;7388;51.078;13.740;2024-03-02T01:38:16;13.70;51.00
14604;DHT22;7388;51.078;13.740;2024-03-02T01:40:42;13.70;51.10
14604;DHT22;7388;51.078;13.740;2024-03-02T01:43:10;13.70;51.00
14604;DHT22;7388;51.078;13.740;2024-03-02T01:45:35;13.70;51.10
14604;DHT22;7388;51.078;13.740;2024-03-02T01:48:04;13.70;51.00
14604;DHT22;7388;51.078;13.740;2024-03-02T01:50:32;13.70;50.90
14604;DHT22;7388;51.078;13.740;2024-03-02T01:52:58;13.70;51.00
14604;DHT22;7388;51.078;13.740;2024-03-02T01:55:24;13.70;50.90
14604;DHT22;7388;51.078;13.740;2024-03-02T01:57:51;13.70;50.80
14604;DHT22;7388;51.078;13.740;2024-03-02T02:00:19;13.70;50.80
14604;DHT22;7388;51.078;13.740;2024-03-02T02:02:45;13.70;50.70
14604;DHT22;7388;51.078;13.740;2024-03-02T02:05:12;13.80;51.40
14604;DHT22;7388;51.078;13.740;2024-03-02T02:07:38;13.80;50.70
14604;DHT22;7388;51.078;13.740;2024-03-02T02:10:04;13.70;50.70
14604;DHT22;7388;51.078;13.740;2024-03-02T02:12:30;13.80;50.60
14604;DHT22;7388;51.078;13.740;2024-03-02T02:14:55;13.80;50.60
14604;DHT22;7388;51.078;13.740;2024-03-02T02:17:21;13.80;50.60
14604;DHT22;7388;51.078;13.740;2024-03-02T02:19:47;13.80;50.70
14604;DHT22;7388;51.078;13.740;2024-03-02T02:22:13;13.70;50.80
14604;DHT22;7388;51.078;13.740;2024-03-02T02:24:42;13.80;51.00
14604;DHT22;7388;51.078;13.740;2024-03-02T02:27:08;13.70;51.00
14604;DHT22;7388;51.078;13.740;2024-03-02T02:29:34;13.70;51.00
14604;DHT22;7388;51.078;13.740;2024-03-02T02:32:00;13.70;51.00
14604;DHT22;7388;51.078;13.740;2024-03-02T02:34:26;13.70;51.00
14604;DHT22;7388;51.078;13.740;2024-03-02T02:36:52;13.70;51.00
14604;DHT22;7388;51.078;13.740;2024-03-02T02:39:20;13.70;51.00
14604;DHT22;7388;51.078;13.740;2024-03-02T02:41:46;13.70;51.20
14604;DHT22;7388;51.078;13.740;2024-03-02T02:44:12;13.70;51.40
14604;DHT22;7388;51.078;13.740;2024-03-02T02:46:41;13.60;51.30
14604;DHT22;7388;51.078;13.740;2024-03-02T02:49:06;13.60;51.30
14604;DHT22;7388;51.078;13.740;2024-03-02T02:51:32;13.60;51.30
14604;DHT22;7388;51.078;13.740;2024-03-02T02:53:58;13.70;51.40
14604;DHT22;7388;51.078;13.740;2024-03-02T02:56:24;13.70;51.40
14604;DHT22;7388;51.078;13.740;2024-03-02T02:58:50;13.70;51.40
14604;DHT22;7388;51.078;13.740;2024-03-02T03:01:16;13.70;51.30
14604;DHT22;7388;51.078;13.740;2024-03-02T03:03:45;13.70;51.20
14604;DHT22;7388;51.078;13.740;2024-03-02T03:06:11;13.70;51.80
14604;DHT22;7388;51.078;13.740;2024-03-02T03:08:38;13.70;51.20
14604;DHT22;7388;51.078;13.740;2024-03-02T03:11:04;13.70;51.30
14604;DHT22;7388;51.078;13.740;2024-03-02T03:13:31;13.60;51.30
14604;DHT22;7388;51.078;13.740;2024-03-02T03:15:57;13.60;51.40
14604;DHT22;7388;51.078;13.740;2024-03-02T03:18:23;13.60;51.40
14604;DHT22;7388;51.078;13.740;2024-03-02T03:20:48;13.60;51.30
14604;DHT22;7388;51.078;13.740;2024-03-02T03:23:15;13.70;51.30
14604;DHT22;7388;51.078;13.740;2024-03-02T03:25:42;13.60;51.20
14604;DHT22;7388;51.078;13.740;2024-03-02T03:28:08;13.60;51.10
14604;DHT22;7388;51.078;13.740;2024-03-02T03:30:38;13.60;51.10
14604;DHT22;7388;51.078;13.740;2024-03-02T03:33:04;13.60;51.10
14604;DHT22;7388;51.078;13.740;2024-03-02T03:35:32;13.60;51.10
14604;DHT22;7388;51.078;13.740;2024-03-02T03:37:57;13.50;51.00
14604;DHT22;7388;51.078;13.740;2024-03-02T03:40:24;13.50;51.10
14604;DHT22;7388;51.078;13.740;2024-03-02T03:42:49;13.50;51.10
14604;DHT22;7388;51.078;13.740;2024-03-02T03:45:16;13.50;51.30
14604;DHT22;7388;51.078;13.740;2024-03-02T03:47:42;13.50;51.50
14604;DHT22;7388;51.078;13.740;2024-03-02T03:50:08;13.50;51.40
14604;DHT22;7388;51.078;13.740;2024-03-02T03:52:34;13.50;51.30
14604;DHT22;7388;51.078;13.740;2024-03-02T03:55:00;13.50;51.20
14604;DHT22;7388;51.078;13.740;2024-03-02T03:57:26;13.50;51.00
14604;DHT22;7388;51.078;13.740;2024-03-02T03:59:53;13.50;50.90
14604;DHT22;7388;51.078;13.740;2024-03-02T04:02:19;13.50;50.80
14604;DHT22;7388;51.078;13.740;2024-03-02T04:04:44;13.50;50.70
14604;DHT22;7388;51.078;13.740;2024-03-02T04:07:10;13.40;50.50
14604;DHT22;7388;51.078;13.740;2024-03-02T04:09:36;13.40;50.40
14604;DHT22;7388;51.078;13.740;2024-03-02T04:12:02;13.40;50.50
14604;DHT22;7388;51.078;13.740;2024-03-02T04:14:27;13.30;50.80
14604;DHT22;7388;51.078;13.740;2024-03-02T04:16:53;13.30;50.90
14604;DHT22;7388;51.078;13.740;2024-03-02T04:19:19;13.20;51.00
14604;DHT22;7388;51.078;13.740;2024-03-02T04:21:45;13.30;51.30
14604;DHT22;7388;51.078;13.740;2024-03-02T04:24:10;13.20;51.30
14604;DHT22;7388;51.078;13.740;2024-03-02T04:26:36;13.30;51.60
14604;DHT22;7388;51.078;13.740;2024-03-02T04:29:02;13.30;51.70
14604;DHT22;7388;51.078;13.740;2024-03-02T04:31:27;13.30;51.80
14604;DHT22;7388;51.078;13.740;2024-03-02T04:33:53;13.30;51.70
14604;DHT22;7388;51.078;13.740;2024-03-02T04:36:19;13.30;51.50
14604;DHT22;7388;51.078;13.740;2024-03-02T04:38:46;13.30;51.30
14604;DHT22;7388;51.078;13.740;2024-03-02T04:41:12;13.30;51.20
14604;DHT22;7388;51.078;13.740;2024-03-02T04:43:38;13.30;51.00
14604;DHT22;7388;51.078;13.740;2024-03-02T04:46:05;13.30;50.90
14604;DHT22;7388;51.078;13.740;2024-03-02T04:48:32;13.30;50.90
14604;DHT22;7388;51.078;13.740;2024-03-02T04:50:58;13.30;50.90
14604;DHT22;7388;51.078;13.740;2024-03-02T04:53:23;13.30;51.10
14604;DHT22;7388;51.078;13.740;2024-03-02T04:55:49;13.30;51.20
14604;DHT22;7388;51.078;13.740;2024-03-02T04:58:35;13.30;51.20
14604;DHT22;7388;51.078;13.740;2024-03-02T05:01:01;13.30;51.40
14604;DHT22;7388;51.078;13.740;2024-03-02T05:03:27;13.20;51.60
14604;DHT22;7388;51.078;13.740;2024-03-02T05:05:52;13.30;51.60
14604;DHT22;7388;51.078;13.740;2024-03-02T05:08:18;13.30;51.70
14604;DHT22;7388;51.078;13.740;2024-03-02T05:10:44;13.30;51.70
14604;DHT22;7388;51.078;13.740;2024-03-02T05:13:09;13.30;51.70
14604;DHT22;7388;51.078;13.740;2024-03-02T05:15:35;13.30;51.70
14604;DHT22;7388;51.078;13.740;2024-03-02T05:18:01;13.30;51.60
14604;DHT22;7388;51.078;13.740;2024-03-02T05:20:30;13.40;51.60
14604;DHT22;7388;51.078;13.740;2024-03-02T05:22:56;13.40;51.70
14604;DHT22;7388;51.078;13.740;2024-03-02T05:25:22;13.40;51.50
14604;DHT22;7388;51.078;13.740;2024-03-02T05:27:48;13.50;51.60
14604;DHT22;7388;51.078;13.740;2024-03-02T05:30:14;13.50;51.70
14604;DHT22;7388;51.078;13.740;2024-03-02T05:32:40;13.50;51.70
14604;DHT22;7388;51.078;13.740;2024-03-02T05:35:06;13.50;51.80
14604;DHT22;7388;51.078;13.740;2024-03-02T05:37:32;13.50;51.70
14604;DHT22;7388;51.078;13.740;2024-03-02T05:39:58;13.50;51.80
14604;DHT22;7388;51.078;13.740;2024-03-02T05:42:24;13.50;51.80
14604;DHT22;7388;51.078;13.740;2024-03-02T05:44:50;13.60;51.80
14604;DHT22;7388;51.078;13.740;2024-03-02T05:47:16;13.50;51.80
14604;DHT22;7388;51.078;13.740;2024-03-02T05:49:41;13.50;51.90
14604;DHT22;7388;51.078;13.740;2024-03-02T05:52:08;13.50;51.80
14604;DHT22;7388;51.078;13.740;2024-03-02T05:54:34;13.50;51.70
14604;DHT22;7388;51.078;13.740;2024-03-02T05:57:00;13.60;52.40
14604;DHT22;7388;51.078;13.740;2024-03-02T05:59:42;13.60;51.70
14604;DHT22;7388;51.078;13.740;2024-03-02T06:02:09;13.60;51.80
14604;DHT22;7388;51.078;13.740;2024-03-02T06:04:34;13.60;51.90
14604;DHT22;7388;51.078;13.740;2024-03-02T06:07:00;13.50;52.00
14604;DHT22;7388;51.078;13.740;2024-03-02T06:09:26;13.50;52.10
14604;DHT22;7388;51.078;13.740;2024-03-02T06:11:51;13.50;52.10
14604;DHT22;7388;51.078;13.740;2024-03-02T06:14:17;13.50;52.20
14604;DHT22;7388;51.078;13.740;2024-03-02T06:16:43;13.60;52.20
14604;DHT22;7388;51.078;13.740;2024-03-02T06:19:09;13.60;52.10
14604;DHT22;7388;51.078;13.740;2024-03-02T06:21:34;13.60;52.10
14604;DHT22;7388;51.078;13.740;2024-03-02T06:24:00;13.60;52.00
14604;DHT22;7388;51.078;13.740;2024-03-02T06:26:26;13.60;51.90
14604;DHT22;7388;51.078;13.740;2024-03-02T06:28:52;13.60;51.80
14604;DHT22;7388;51.078;13.740;2024-03-02T06:31:18;13.60;51.90
14604;DHT22;7388;51.078;13.740;2024-03-02T06:33:44;13.60;52.00
14604;DHT22;7388;51.078;13.740;2024-03-02T06:36:09;13.70;52.10
14604;DHT22;7388;51.078;13.740;2024-03-02T06:38:37;13.70;52.00
14604;DHT22;7388;51.078;13.740;2024-03-02T06:41:03;13.70;51.90
14604;DHT22;7388;51.078;13.740;2024-03-02T06:43:29;13.70;52.00
14604;DHT22;7388;51.078;13.740;2024-03-02T06:45:54;13.70;52.10
14604;DHT22;7388;51.078;13.740;2024-03-02T06:48:20;13.70;52.10
14604;DHT22;7388;51.078;13.740;2024-03-02T06:50:49;13.70;52.20
14604;DHT22;7388;51.078;13.740;2024-03-02T06:53:16;13.70;52.20
14604;DHT22;7388;51.078;13.740;2024-03-02T06:55:46;13.70;52.10
14604;DHT22;7388;51.078;13.740;2024-03-02T06:58:13;13.60;52.10
14604;DHT22;7388;51.078;13.740;2024-03-02T07:00:40;13.60;52.10
14604;DHT22;7388;51.078;13.740;2024-03-02T07:03:06;13.60;52.20
14604;DHT22;7388;51.078;13.740;2024-03-02T07:05:32;13.60;52.30
14604;DHT22;7388;51.078;13.740;2024-03-02T07:07:57;13.60;52.30
14604;DHT22;7388;51.078;13.740;2024-03-02T07:10:23;13.60;52.30
14604;DHT22;7388;51.078;13.740;2024-03-02T07:12:49;13.60;52.40
14604;DHT22;7388;51.078;13.740;2024-03-02T07:15:15;13.60;52.60
14604;DHT22;7388;51.078;13.740;2024-03-02T07:17:52;13.60;52.60
14604;DHT22;7388;51.078;13.740;2024-03-02T07:20:18;13.60;52.70
14604;DHT22;7388;51.078;13.740;2024-03-02T07:22:44;13.60;52.70
14604;DHT22;7388;51.078;13.740;2024-03-02T07:25:10;13.60;52.60
14604;DHT22;7388;51.078;13.740;2024-03-02T07:27:36;13.60;52.50
14604;DHT22;7388;51.078;13.740;2024-03-02T07:30:05;13.60;52.60
14604;DHT22;7388;51.078;13.740;2024-03-02T07:32:31;13.60;52.60
14604;DHT22;7388;51.078;13.740;2024-03-02T07:34:56;13.70;52.70
14604;DHT22;7388;51.078;13.740;2024-03-02T07:37:23;13.70;52.60
14604;DHT22;7388;51.078;13.740;2024-03-02T07:39:50;13.70;52.50
14604;DHT22;7388;51.078;13.740;2024-03-02T07:42:16;13.70;52.60
14604;DHT22;7388;51.078;13.740;2024-03-02T07:44:44;13.70;52.60
14604;DHT22;7388;51.078;13.740;2024-03-02T07:47:10;13.80;52.70
14604;DHT22;7388;51.078;13.740;2024-03-02T07:49:35;13.80;52.60
14604;DHT22;7388;51.078;13.740;2024-03-02T07:52:01;13.80;52.70
14604;DHT22;7388;51.078;13.740;2024-03-02T07:54:27;13.80;52.70
14604;DHT22;7388;51.078;13.740;2024-03-02T07:56:53;13.80;52.70
14604;DHT22;7388;51.078;13.740;2024-03-02T07:59:18;13.80;52.70
14604;DHT22;7388;51.078;13.740;2024-03-02T08:01:44;13.80;52.70
14604;DHT22;7388;51.078;13.740;2024-03-02T08:04:10;13.80;52.80
14604;DHT22;7388;51.078;13.740;2024-03-02T08:06:35;13.90;52.80
14604;DHT22;7388;51.078;13.740;2024-03-02T08:09:01;13.90;52.80
14604;DHT22;7388;51.078;13.740;2024-03-02T08:11:27;13.90;52.80
14604;DHT22;7388;51.078;13.740;2024-03-02T08:13:54;13.90;52.80
14604;DHT22;7388;51.078;13.740;2024-03-02T08:16:22;13.90;52.60
14604;DHT22;7388;51.078;13.740;2024-03-02T08:18:49;13.90;52.40
14604;DHT22;7388;51.078;13.740;2024-03-02T08:21:15;13.90;52.40
14604;DHT22;7388;51.078;13.740;2024-03-02T08:23:41;13.90;52.30
14604;DHT22;7388;51.078;13.740;2024-03-02T08:26:08;13.90;52.30
14604;DHT22;7388;51.078;13.740;2024-03-02T08:28:35;13.90;52.30
14604;DHT22;7388;51.078;13.740;2024-03-02T08:31:03;13.90;52.20
14604;DHT22;7388;51.078;13.740;2024-03-02T08:33:28;13.90;52.30
14604;DHT22;7388;51.078;13.740;2024-03-02T08:35:54;13.90;52.30
14604;DHT22;7388;51.078;13.740;2024-03-02T08:38:20;13.90;52.10
14604;DHT22;7388;51.078;13.740;2024-03-02T08:40:46;13.90;52.10
14604;DHT22;7388;51.078;13.740;2024-03-02T08:43:13;13.90;52.00
14604;DHT22;7388;51.078;13.740;2024-03-02T08:45:40;14.00;51.80
14604;DHT22;7388;51.078;13.740;2024-03-02T08:48:07;14.00;51.70
14604;DHT22;7388;51.078;13.740;2024-03-02T08:50:34;14.00;51.70
14604;DHT22;7388;51.078;13.740;2024-03-02T08:53:00;14.10;51.50
14604;DHT22;7388;51.078;13.740;2024-03-02T08:55:26;14.10;51.30
14604;DHT22;7388;51.078;13.740;2024-03-02T08:57:52;14.10;51.10
14604;DHT22;7388;51.078;13.740;2024-03-02T09:00:18;14.10;50.70
14604;DHT22;7388;51.078;13.740;2024-03-02T09:02:44;14.20;50.90
14604;DHT22;7388;51.078;13.740;2024-03-02T09:05:10;14.20;50.90
14604;DHT22;7388;51.078;13.740;2024-03-02T09:07:36;14.30;51.00
14604;DHT22;7388;51.078;13.740;2024-03-02T09:10:05;14.40;50.80
14604;DHT22;7388;51.078;13.740;2024-03-02T09:12:31;14.50;51.00
14604;DHT22;7388;51.078;13.740;2024-03-02T09:14:57;14.60;50.60
14604;DHT22;7388;51.078;13.740;2024-03-02T09:17:23;14.70;50.40
14604;DHT22;7388;51.078;13.740;2024-03-02T09:19:49;14.80;50.00
14604;DHT22;7388;51.078;13.740;2024-03-02T09:22:19;14.90;50.30
14604;DHT22;7388;51.078;13.740;2024-03-02T09:24:44;14.80;49.10
14604;DHT22;7388;51.078;13.740;2024-03-02T09:27:11;14.90;48.90
14604;DHT22;7388;51.078;13.740;2024-03-02T09:29:37;14.90;48.80
14604;DHT22;7388;51.078;13.740;2024-03-02T09:32:03;14.90;49.30
14604;DHT22;7388;51.078;13.740;2024-03-02T09:34:29;15.00;49.30
14604;DHT22;7388;51.078;13.740;2024-03-02T09:36:54;15.00;49.10
14604;DHT22;7388;51.078;13.740;2024-03-02T09:39:20;15.00;48.30
14604;DHT22;7388;51.078;13.740;2024-03-02T09:41:47;15.00;48.10
14604;DHT22;7388;51.078;13.740;2024-03-02T09:44:14;15.00;48.20
14604;DHT22;7388;51.078;13.740;2024-03-02T09:46:40;15.00;47.90
14604;DHT22;7388;51.078;13.740;2024-03-02T09:49:10;15.10;48.40
14604;DHT22;7388;51.078;13.740;2024-03-02T09:51:37;15.10;48.00
14604;DHT22;7388;51.078;13.740;2024-03-02T09:54:03;15.10;47.60
14604;DHT22;7388;51.078;13.740;2024-03-02T09:56:29;15.10;47.80
14604;DHT22;7388;51.078;13.740;2024-03-02T09:58:55;15.20;47.90
14604;DHT22;7388;51.078;13.740;2024-03-02T10:01:21;15.20;47.70
14604;DHT22;7388;51.078;13.740;2024-03-02T10:03:47;15.10;47.30
14604;DHT22;7388;51.078;13.740;2024-03-02T10:06:24;15.00;47.30
14604;DHT22;7388;51.078;13.740;2024-03-02T10:08:50;15.00;47.50
14604;DHT22;7388;51.078;13.740;2024-03-02T10:11:30;15.00;47.40
14604;DHT22;7388;51.078;13.740;2024-03-02T10:14:10;15.00;47.80
14604;DHT22;7388;51.078;13.740;2024-03-02T10:16:41;15.00;47.80
14604;DHT22;7388;51.078;13.740;2024-03-02T10:19:19;15.00;47.80
14604;DHT22;7388;51.078;13.740;2024-03-02T10:21:49;15.10;47.80
14604;DHT22;7388;51.078;13.740;2024-03-02T10:24:16;15.00;47.60
14604;DHT22;7388;51.078;13.740;2024-03-02T10:26:42;15.00;47.70
14604;DHT22;7388;51.078;13.740;2024-03-02T10:29:11;15.10;47.50
14604;DHT22;7388;51.078;13.740;2024-03-02T10:31:39;15.20;47.50
14604;DHT22;7388;51.078;13.740;2024-03-02T10:34:06;15.30;47.10
14604;DHT22;7388;51.078;13.740;2024-03-02T10:36:36;15.40;47.50
14604;DHT22;7388;51.078;13.740;2024-03-02T10:39:06;15.50;46.60
14604;DHT22;7388;51.078;13.740;2024-03-02T10:41:37;15.50;46.30
14604;DHT22;7388;51.078;13.740;2024-03-02T10:44:04;15.60;46.40
14604;DHT22;7388;51.078;13.740;2024-03-02T10:46:32;15.70;46.10
14604;DHT22;7388;51.078;13.740;2024-03-02T10:49:00;15.80;45.90
14604;DHT22;7388;51.078;13.740;2024-03-02T10:51:30;16.00;45.60
14604;DHT22;7388;51.078;13.740;2024-03-02T10:54:02;16.20;45.20
14604;DHT22;7388;51.078;13.740;2024-03-02T10:56:33;16.40;44.00
14604;DHT22;7388;51.078;13.740;2024-03-02T10:59:34;16.50;44.30
14604;DHT22;7388;51.078;13.740;2024-03-02T11:02:02;16.70;44.30
14604;DHT22;7388;51.078;13.740;2024-03-02T11:04:30;16.80;43.70
14604;DHT22;7388;51.078;13.740;2024-03-02T11:07:07;16.80;42.10
14604;DHT22;7388;51.078;13.740;2024-03-02T11:09:42;16.70;42.30
14604;DHT22;7388;51.078;13.740;2024-03-02T11:12:19;16.80;42.40
14604;DHT22;7388;51.078;13.740;2024-03-02T11:14:45;16.90;42.10
14604;DHT22;7388;51.078;13.740;2024-03-02T11:17:13;17.00;41.80
14604;DHT22;7388;51.078;13.740;2024-03-02T11:19:41;17.10;41.80
14604;DHT22;7388;51.078;13.740;2024-03-02T11:22:09;17.20;42.00
14604;DHT22;7388;51.078;13.740;2024-03-02T11:24:35;17.40;41.70
14604;DHT22;7388;51.078;13.740;2024-03-02T11:27:03;17.80;41.00
14604;DHT22;7388;51.078;13.740;2024-03-02T11:32:02;18.30;39.40
14604;DHT22;7388;51.078;13.740;2024-03-02T11:34:32;18.60;38.10
14604;DHT22;7388;51.078;13.740;2024-03-02T11:36:58;18.80;37.80
14604;DHT22;7388;51.078;13.740;2024-03-02T11:39:28;18.70;37.10
14604;DHT22;7388;51.078;13.740;2024-03-02T11:41:57;18.90;39.10
14604;DHT22;7388;51.078;13.740;2024-03-02T11:44:29;18.90;36.60
14604;DHT22;7388;51.078;13.740;2024-03-02T11:49:41;19.00;37.60
14604;DHT22;7388;51.078;13.740;2024-03-02T11:52:09;19.20;37.50
14604;DHT22;7388;51.078;13.740;2024-03-02T11:54:37;19.20;36.30
14604;DHT22;7388;51.078;13.740;2024-03-02T11:57:05;19.30;37.30
14604;DHT22;7388;51.078;13.740;2024-03-02T11:59:32;19.00;36.30
14604;DHT22;7388;51.078;13.740;2024-03-02T12:01:58;18.90;36.50
14604;DHT22;7388;51.078;13.740;2024-03-02T12:04:25;18.60;36.30
14604;DHT22;7388;51.078;13.740;2024-03-02T12:06:58;18.50;36.70
14604;DHT22;7388;51.078;13.740;2024-03-02T12:09:26;18.20;37.10
14604;DHT22;7388;51.078;13.740;2024-03-02T12:12:08;18.10;37.20
14604;DHT22;7388;51.078;13.740;2024-03-02T12:14:36;18.00;37.00
14604;DHT22;7388;51.078;13.740;2024-03-02T12:17:02;17.80;37.60
14604;DHT22;7388;51.078;13.740;2024-03-02T12:19:29;17.70;37.90
14604;DHT22;7388;51.078;13.740;2024-03-02T12:21:59;17.60;37.90
14604;DHT22;7388;51.078;13.740;2024-03-02T12:24:30;17.50;38.00
14604;DHT22;7388;51.078;13.740;2024-03-02T12:26:57;17.40;38.30
14604;DHT22;7388;51.078;13.740;2024-03-02T12:29:23;17.20;38.70
14604;DHT22;7388;51.078;13.740;2024-03-02T12:31:50;17.10;39.00
14604;DHT22;7388;51.078;13.740;2024-03-02T12:34:18;17.10;39.40
14604;DHT22;7388;51.078;13.740;2024-03-02T12:36:48;17.00;39.50
14604;DHT22;7388;51.078;13.740;2024-03-02T12:39:21;17.00;39.40
14604;DHT22;7388;51.078;13.740;2024-03-02T12:41:49;16.90;40.10
14604;DHT22;7388;51.078;13.740;2024-03-02T12:44:16;16.80;39.10
14604;DHT22;7388;51.078;13.740;2024-03-02T12:46:43;16.70;39.20
14604;DHT22;7388;51.078;13.740;2024-03-02T12:49:10;16.60;39.40
14604;DHT22;7388;51.078;13.740;2024-03-02T12:51:37;16.60;39.70
14604;DHT22;7388;51.078;13.740;2024-03-02T12:54:06;16.70;39.10
14604;DHT22;7388;51.078;13.740;2024-03-02T12:56:32;16.80;38.90
14604;DHT22;7388;51.078;13.740;2024-03-02T12:58:59;17.00;39.20
14604;DHT22;7388;51.078;13.740;2024-03-02T13:01:25;17.40;39.00
14604;DHT22;7388;51.078;13.740;2024-03-02T13:03:52;17.80;38.20
14604;DHT22;7388;51.078;13.740;2024-03-02T13:06:20;18.20;37.90
14604;DHT22;7388;51.078;13.740;2024-03-02T13:08:46;18.40;36.20
14604;DHT22;7388;51.078;13.740;2024-03-02T13:11:13;18.60;36.20
14604;DHT22;7388;51.078;13.740;2024-03-02T13:13:41;18.90;37.20
14604;DHT22;7388;51.078;13.740;2024-03-02T13:16:10;19.00;34.60
14604;DHT22;7388;51.078;13.740;2024-03-02T13:18:38;19.20;35.10
14604;DHT22;7388;51.078;13.740;2024-03-02T13:21:04;19.20;34.30
14604;DHT22;7388;51.078;13.740;2024-03-02T13:23:30;19.10;34.10
14604;DHT22;7388;51.078;13.740;2024-03-02T13:25:57;19.00;34.20
14604;DHT22;7388;51.078;13.740;2024-03-02T13:28:26;18.90;34.90
14604;DHT22;7388;51.078;13.740;2024-03-02T13:30:52;18.80;34.80
14604;DHT22;7388;51.078;13.740;2024-03-02T13:33:18;18.70;34.80
14604;DHT22;7388;51.078;13.740;2024-03-02T13:35:49;18.70;34.90
14604;DHT22;7388;51.078;13.740;2024-03-02T13:38:19;18.70;34.30
14604;DHT22;7388;51.078;13.740;2024-03-02T13:40:45;18.60;34.40
14604;DHT22;7388;51.078;13.740;2024-03-02T13:43:12;18.60;34.70
14604;DHT22;7388;51.078;13.740;2024-03-02T13:45:38;18.50;34.40
14604;DHT22;7388;51.078;13.740;2024-03-02T13:48:05;18.40;34.80
14604;DHT22;7388;51.078;13.740;2024-03-02T13:50:31;18.30;34.70
14604;DHT22;7388;51.078;13.740;2024-03-02T13:52:56;18.20;34.80
14604;DHT22;7388;51.078;13.740;2024-03-02T13:55:22;18.10;35.60
14604;DHT22;7388;51.078;13.740;2024-03-02T13:57:48;17.90;35.40
14604;DHT22;7388;51.078;13.740;2024-03-02T14:00:19;17.90;35.70
14604;DHT22;7388;51.078;13.740;2024-03-02T14:02:45;17.90;35.70
14604;DHT22;7388;51.078;13.740;2024-03-02T14:05:12;17.90;36.40
14604;DHT22;7388;51.078;13.740;2024-03-02T14:07:40;17.90;36.00
14604;DHT22;7388;51.078;13.740;2024-03-02T14:10:06;17.80;35.80
14604;DHT22;7388;51.078;13.740;2024-03-02T14:12:32;17.70;36.00
14604;DHT22;7388;51.078;13.740;2024-03-02T14:14:57;17.50;36.40
14604;DHT22;7388;51.078;13.740;2024-03-02T14:17:28;17.30;36.20
14604;DHT22;7388;51.078;13.740;2024-03-02T14:19:54;17.10;36.60
14604;DHT22;7388;51.078;13.740;2024-03-02T14:22:20;17.00;37.10
14604;DHT22;7388;51.078;13.740;2024-03-02T14:24:46;16.90;37.10
14604;DHT22;7388;51.078;13.740;2024-03-02T14:27:13;16.90;37.60
14604;DHT22;7388;51.078;13.740;2024-03-02T14:29:40;16.90;37.40
14604;DHT22;7388;51.078;13.740;2024-03-02T14:32:06;16.90;37.60
14604;DHT22;7388;51.078;13.740;2024-03-02T14:34:32;16.80;37.70
14604;DHT22;7388;51.078;13.740;2024-03-02T14:36:58;16.80;37.40
14604;DHT22;7388;51.078;13.740;2024-03-02T14:39:25;16.80;37.80
14604;DHT22;7388;51.078;13.740;2024-03-02T14:41:51;16.70;37.40
14604;DHT22;7388;51.078;13.740;2024-03-02T14:44:16;16.60;37.40
14604;DHT22;7388;51.078;13.740;2024-03-02T14:46:43;16.60;37.90
14604;DHT22;7388;51.078;13.740;2024-03-02T14:49:12;16.50;37.70
14604;DHT22;7388;51.078;13.740;2024-03-02T14:51:38;16.50;38.00
14604;DHT22;7388;51.078;13.740;2024-03-02T14:54:04;16.60;37.60
14604;DHT22;7388;51.078;13.740;2024-03-02T14:56:30;16.50;37.80
14604;DHT22;7388;51.078;13.740;2024-03-02T14:58:55;16.60;37.90
14604;DHT22;7388;51.078;13.740;2024-03-02T15:01:21;16.60;37.90
14604;DHT22;7388;51.078;13.740;2024-03-02T15:03:49;16.60;37.90
14604;DHT22;7388;51.078;13.740;2024-03-02T15:06:15;16.60;37.70
14604;DHT22;7388;51.078;13.740;2024-03-02T15:08:41;16.60;37.70
14604;DHT22;7388;51.078;13.740;2024-03-02T15:11:08;16.60;37.60
14604;DHT22;7388;51.078;13.740;2024-03-02T15:13:34;16.60;37.80
14604;DHT22;7388;51.078;13.740;2024-03-02T15:16:00;16.50;37.50
14604;DHT22;7388;51.078;13.740;2024-03-02T15:18:26;16.50;37.50
14604;DHT22;7388;51.078;13.740;2024-03-02T15:20:53;16.40;37.70
14604;DHT22;7388;51.078;13.740;2024-03-02T15:23:19;16.40;37.60
14604;DHT22;7388;51.078;13.740;2024-03-02T15:25:44;16.30;37.70
14604;DHT22;7388;51.078;13.740;2024-03-02T15:28:10;16.30;37.90
14604;DHT22;7388;51.078;13.740;2024-03-02T15:30:36;16.20;38.00
14604;DHT22;7388;51.078;13.740;2024-03-02T15:33:02;16.20;38.30
14604;DHT22;7388;51.078;13.740;2024-03-02T15:35:27;16.20;37.90
14604;DHT22;7388;51.078;13.740;2024-03-02T15:37:53;16.10;38.10
14604;DHT22;7388;51.078;13.740;2024-03-02T15:40:19;16.20;38.00
14604;DHT22;7388;51.078;13.740;2024-03-02T15:42:45;16.10;38.10